Hauptseite
METAR-TAF:

METAR-TAF

Flughäfen :

Flughafen Bagdad

Bagdad, Irak

Breite: 33-15-45N, Länge: 44-14-04E, Höhe: 35 m

Beobachtung

Neuester Wetterbericht von vor 1 Stunde und 10 Minuten, um 23:00 UTC
Wind 8 kt aus Nordwest
Temperatur 14°C
Luftfeuchtigkeit 47%
Luftdruck 1016 hPa
Sichtweite 10 km oder mehr
keine Wolken unter 1500 m und keine Kumulonimbus oder Gewitterwolken

METAR: ORBI 142300Z 31008KT CAVOK 14/03 Q1016 NOSIG

Zeit: 03:10 (00:10 UTC)

Prognose

Neuester Wetterbericht von vor 2 Stunden und 10 Minuten, um 22:00 UTC
Gültige Prognose vom 15 um 00 UTC bis 15 um 24 UTC
Wind 10 kt aus West/Nordwest
Sichtweite: 8000 m

TAF: ORBI 142200Z 1500/1524 30010KT 8000 NSC

Wetterbeobachtungen und Prognosen von mehr als 4000 Flughäfen (METAR und TAF Bericht).

Die verfügbaren Stationen werden durch gelbe und rote Markierungen auf der Karte dargestellt.

Führen Sie die Maus auf sie, um den Namen der Station zu sehen.

Darauf klicken, um die Beobachtung von Wetterbeobachtungen und Prognosen zu sehen.

Um die Karte zu ändern : klicken Sie auf den grünen Tasten mit einem schwarzen Kreuz Zum Vergrößern, auf den grünen Button mit einem Gedankenstrich zu verkleinern, oder auf die grünen Pfeile für benachbarte Karten.


METAR-TAF: